createdAt,value
2022-12-17T11:16:02.018Z,1.80
2022-12-17T11:19:03.903Z,1.00
2022-12-17T11:21:59.907Z,1.00
2022-12-17T11:25:09.050Z,1.10
2022-12-17T11:28:04.249Z,1.10
2022-12-17T11:30:59.204Z,1.10
2022-12-17T11:33:56.038Z,1.00
2022-12-17T11:37:18.354Z,1.00
2022-12-17T11:40:18.933Z,1.00
2022-12-17T11:43:33.914Z,1.00
2022-12-17T11:46:33.898Z,0.90
2022-12-17T11:49:31.021Z,0.90
2022-12-17T11:52:42.656Z,0.90
2022-12-17T11:55:39.870Z,0.90
2022-12-17T11:58:53.482Z,0.90
2022-12-17T12:02:20.300Z,1.00
2022-12-17T12:05:30.022Z,1.00
2022-12-17T12:08:31.580Z,1.00
2022-12-17T12:11:38.681Z,1.00
2022-12-17T12:14:37.465Z,1.00
2022-12-17T12:17:42.373Z,1.10
2022-12-17T12:20:57.620Z,1.20
2022-12-17T12:24:14.170Z,1.30
2022-12-17T12:27:05.397Z,1.30
2022-12-17T12:30:20.339Z,1.30
2022-12-17T12:33:22.352Z,1.40
2022-12-17T12:36:12.398Z,1.40
2022-12-17T12:39:02.514Z,1.30
2022-12-17T12:42:01.574Z,1.20
2022-12-17T12:45:02.699Z,1.20
2022-12-17T12:48:11.958Z,1.10
2022-12-17T12:51:33.757Z,1.10
2022-12-17T12:54:38.518Z,1.10
2022-12-17T12:57:44.506Z,0.90
2022-12-17T13:00:44.783Z,0.90
2022-12-17T13:03:58.347Z,0.80
2022-12-17T13:06:43.948Z,0.70
2022-12-17T13:09:32.204Z,0.60
2022-12-17T13:12:02.749Z,0.50
2022-12-17T13:14:36.094Z,0.50
2022-12-17T13:17:22.976Z,0.50
2022-12-17T13:20:05.137Z,0.50
2022-12-17T13:22:36.666Z,0.50
2022-12-17T13:25:20.821Z,0.60
2022-12-17T13:27:51.465Z,0.60
2022-12-17T13:30:31.567Z,0.70
2022-12-17T13:33:07.855Z,0.80
2022-12-17T13:35:44.001Z,0.80
2022-12-17T13:38:30.033Z,0.80
2022-12-17T13:41:11.586Z,0.80
2022-12-17T13:43:49.818Z,0.90
2022-12-17T13:46:49.806Z,0.80
2022-12-17T13:50:32.347Z,0.80
2022-12-17T13:52:48.346Z,0.80
2022-12-17T13:55:34.321Z,0.70
2022-12-17T13:58:01.883Z,0.60
2022-12-17T14:00:31.162Z,0.60
2022-12-17T14:03:12.832Z,0.60
2022-12-17T14:05:44.700Z,0.60
2022-12-17T14:08:20.972Z,0.60
2022-12-17T14:11:14.562Z,0.60
2022-12-17T14:13:44.298Z,0.60
2022-12-17T14:16:20.038Z,0.60
2022-12-17T14:18:54.550Z,0.60
2022-12-17T14:21:27.149Z,0.70
2022-12-17T14:23:55.795Z,0.70
2022-12-17T14:26:22.972Z,0.60
2022-12-17T14:28:53.010Z,0.50
2022-12-17T14:31:29.257Z,0.40
2022-12-17T14:34:13.648Z,0.20
2022-12-17T14:36:43.060Z,0.10
2022-12-17T14:39:31.715Z,0.00
2022-12-17T14:42:25.467Z,-0.10
2022-12-17T14:45:03.970Z,-0.10
2022-12-17T14:47:36.644Z,-0.10
2022-12-17T14:50:13.950Z,0.00
2022-12-17T14:52:50.572Z,0.00
2022-12-17T14:55:27.154Z,0.00
2022-12-17T14:58:12.879Z,0.10
2022-12-17T15:03:40.784Z,0.30
2022-12-17T15:06:11.292Z,0.30
2022-12-17T15:08:48.207Z,0.30
2022-12-17T15:11:23.426Z,0.30
2022-12-17T15:13:56.065Z,0.30
2022-12-17T15:16:24.449Z,0.30
2022-12-17T15:18:51.679Z,0.30
2022-12-17T15:21:20.035Z,0.30
2022-12-17T15:23:49.252Z,0.30
2022-12-17T15:26:17.964Z,0.30
2022-12-17T15:28:45.983Z,0.40
2022-12-17T15:31:14.419Z,0.30
2022-12-17T15:33:42.163Z,0.40
2022-12-17T15:36:12.580Z,0.40
2022-12-17T15:38:40.491Z,0.40
2022-12-17T15:41:26.926Z,0.40
2022-12-17T15:43:54.380Z,0.40
2022-12-17T15:46:21.811Z,0.30
2022-12-17T15:48:50.484Z,0.30
2022-12-17T15:51:19.909Z,0.30
2022-12-17T15:53:49.624Z,0.20
2022-12-17T15:56:28.090Z,0.20
2022-12-17T15:58:59.184Z,0.20
2022-12-17T16:01:26.708Z,0.10
2022-12-17T16:03:55.564Z,0.10
2022-12-17T16:06:22.894Z,0.00
2022-12-17T16:08:50.263Z,0.00
2022-12-17T16:11:18.036Z,-0.10
2022-12-17T16:13:45.419Z,-0.10
2022-12-17T16:16:12.655Z,-0.10
2022-12-17T16:18:40.326Z,-0.20
2022-12-17T16:21:09.370Z,-0.20
2022-12-17T16:23:36.496Z,-0.20
2022-12-17T16:26:09.141Z,-0.30
2022-12-17T16:28:37.181Z,-0.20
2022-12-17T16:31:15.970Z,-0.20
2022-12-17T16:33:47.914Z,-0.20
2022-12-17T16:36:19.574Z,-0.20
2022-12-17T16:38:52.591Z,-0.20
2022-12-17T16:41:22.239Z,-0.30
2022-12-17T16:43:53.271Z,-0.30
2022-12-17T16:46:32.586Z,-0.30
2022-12-17T16:49:25.578Z,-0.40
2022-12-17T16:51:54.141Z,-0.50
2022-12-17T16:54:26.042Z,-0.50
2022-12-17T16:56:54.393Z,-0.50
2022-12-17T16:59:23.639Z,-0.50
2022-12-17T17:01:52.691Z,-0.60
2022-12-17T17:04:24.553Z,-0.60
2022-12-17T17:06:58.522Z,-0.60
2022-12-17T17:09:27.040Z,-0.60
2022-12-17T17:11:59.108Z,-0.50
2022-12-17T17:14:26.494Z,-0.50
2022-12-17T17:16:53.785Z,-0.50
2022-12-17T17:19:23.737Z,-0.50
2022-12-17T17:21:54.903Z,-0.50
2022-12-17T17:24:25.615Z,-0.50
2022-12-17T17:26:55.064Z,-0.50
2022-12-17T17:29:22.698Z,-0.60
2022-12-17T17:32:09.873Z,-0.60
2022-12-17T17:34:39.564Z,-0.70
2022-12-17T17:37:06.712Z,-0.70
2022-12-17T17:39:34.517Z,-0.80
2022-12-17T17:42:02.178Z,-0.80
2022-12-17T17:44:29.214Z,-0.80
2022-12-17T17:47:00.674Z,-0.90
2022-12-17T17:49:30.058Z,-0.90
2022-12-17T17:52:09.530Z,-0.90
2022-12-17T17:54:39.829Z,-0.90
2022-12-17T17:57:07.464Z,-0.80
2022-12-17T17:59:34.868Z,-0.80
2022-12-17T18:02:03.875Z,-0.80
2022-12-17T18:04:32.040Z,-0.80
2022-12-17T18:09:49.177Z,-0.70
2022-12-17T18:12:35.234Z,-0.70
2022-12-17T18:18:09.659Z,-0.60
2022-12-17T18:20:40.036Z,-0.60
2022-12-17T18:23:09.237Z,-0.60
